Time;durP1;ratioP1;P1;durP2;ratioP2;P2;SDS_P1;SDS_P2;PMS_P1;PMS_P2;Temp;Humidity;BMP_temperature;BMP_pressure;BME280_temperature;BME280_humidity;BME280_pressure;Samples;Min_cycle;Max_cycle;Signal;HPM_P1;HPM_P2
2022/08/21 00:01:33;;;;;;;8.55;4.50;;;18.80;99.90;;;;;;5053956;28;20173;-46
2022/08/21 00:04:07;;;;;;;7.05;4.43;;;18.80;99.90;;;;;;5054100;28;20626;-45
2022/08/21 00:06:33;;;;;;;6.55;4.53;;;18.90;99.90;;;;;;5054139;28;20170;-45
2022/08/21 00:09:00;;;;;;;6.95;4.68;;;18.80;99.90;;;;;;5053577;28;20159;-44
2022/08/21 00:11:26;;;;;;;8.10;5.22;;;18.80;99.90;;;;;;5053955;28;20174;-45
2022/08/21 00:13:53;;;;;;;7.20;4.57;;;18.80;99.90;;;;;;5052275;28;20226;-46
2022/08/21 00:16:18;;;;;;;5.93;3.80;;;18.80;99.90;;;;;;5053002;28;20240;-45
2022/08/21 00:18:44;;;;;;;8.80;4.78;;;18.70;99.90;;;;;;5053799;28;20630;-45
2022/08/21 00:21:12;;;;;;;14.98;4.40;;;18.70;99.90;;;;;;5053813;28;20543;-44
2022/08/21 00:23:37;;;;;;;10.45;4.68;;;18.60;99.90;;;;;;5053893;28;20194;-44
2022/08/21 00:26:03;;;;;;;9.82;4.85;;;18.50;99.90;;;;;;5053630;28;20198;-46
2022/08/21 00:28:29;;;;;;;10.77;4.50;;;18.50;99.90;;;;;;5053667;28;20170;-47
2022/08/21 00:30:54;;;;;;;8.93;4.97;;;18.40;99.90;;;;;;5053488;28;20163;-44
2022/08/21 00:33:20;;;;;;;8.25;4.10;;;18.40;99.90;;;;;;5054014;28;20210;-46
2022/08/21 00:35:46;;;;;;;10.68;4.97;;;20.00;99.90;;;;;;5053809;28;20622;-44
2022/08/21 00:38:12;;;;;;;10.90;5.68;;;18.40;99.90;;;;;;5053449;28;20159;-49
2022/08/21 00:40:49;;;;;;;8.23;4.30;;;18.30;99.90;;;;;;5053433;28;20636;-49
2022/08/21 00:43:17;;;;;;;11.07;4.38;;;18.30;99.90;;;;;;5053411;28;20190;-49
2022/08/21 00:45:43;;;;;;;9.77;5.18;;;18.20;99.90;;;;;;5053334;28;20166;-50
2022/08/21 00:48:09;;;;;;;12.10;4.60;;;18.20;99.90;;;;;;5053295;28;20171;-45
2022/08/21 00:50:41;;;;;;;12.82;4.85;;;18.20;99.90;;;;;;5053465;28;20166;-49
2022/08/21 00:53:10;;;;;;;13.07;4.88;;;18.20;99.90;;;;;;5053071;28;20166;-45
2022/08/21 00:55:36;;;;;;;9.15;4.53;;;18.20;99.90;;;;;;5053062;28;20166;-50
2022/08/21 00:58:05;;;;;;;10.98;4.68;;;18.20;99.90;;;;;;5053026;28;20166;-49
2022/08/21 01:00:33;;;;;;;7.85;4.35;;;18.20;99.90;;;;;;5052896;28;20634;-49
2022/08/21 01:03:05;;;;;;;10.32;4.85;;;18.20;99.90;;;;;;5052963;28;20533;-49
2022/08/21 01:05:32;;;;;;;8.50;4.63;;;18.20;99.90;;;;;;5052874;28;20167;-48
2022/08/21 01:07:58;;;;;;;12.48;5.97;;;18.20;99.90;;;;;;5052873;28;20174;-49
2022/08/21 01:10:23;;;;;;;9.65;5.57;;;18.20;99.90;;;;;;5052753;28;20171;-50
2022/08/21 01:12:54;;;;;;;8.43;4.70;;;18.20;99.90;;;;;;5053014;28;20697;-49
2022/08/21 01:15:24;;;;;;;9.65;5.32;;;18.20;99.90;;;;;;5052825;28;20178;-44
2022/08/21 01:17:50;;;;;;;7.53;5.25;;;18.20;99.90;;;;;;5053127;28;20177;-48
2022/08/21 01:20:16;;;;;;;10.25;5.32;;;18.10;99.90;;;;;;5053056;28;20219;-49
2022/08/21 01:22:42;;;;;;;7.45;5.40;;;18.10;99.90;;;;;;5052557;28;20162;-48
2022/08/21 01:25:10;;;;;;;8.48;5.05;;;18.10;99.90;;;;;;5052517;28;20178;-48
2022/08/21 01:27:36;;;;;;;7.72;4.15;;;18.10;99.90;;;;;;5052405;28;20301;-48
2022/08/21 01:30:10;;;;;;;11.40;5.32;;;18.00;99.90;;;;;;5052682;28;20253;-48
2022/08/21 01:32:35;;;;;;;7.43;4.82;;;18.00;99.90;;;;;;5052402;28;20175;-49
2022/08/21 01:35:02;;;;;;;7.72;5.18;;;18.10;99.90;;;;;;5052228;28;20205;-48
2022/08/21 01:37:28;;;;;;;8.10;5.60;;;18.00;99.90;;;;;;5052600;28;20190;-48
2022/08/21 01:39:53;;;;;;;8.80;5.00;;;18.00;99.90;;;;;;5052291;28;20618;-48
2022/08/21 01:42:19;;;;;;;10.60;4.90;;;18.00;99.90;;;;;;5052634;28;20221;-49
2022/08/21 01:44:45;;;;;;;7.43;4.65;;;17.90;99.90;;;;;;5052157;28;20213;-49
2022/08/21 01:47:12;;;;;;;7.75;4.45;;;17.80;99.90;;;;;;5052106;28;20805;-47
2022/08/21 01:49:39;;;;;;;8.10;4.38;;;17.70;99.90;;;;;;5052174;28;20162;-47
2022/08/21 01:52:05;;;;;;;9.73;5.22;;;17.70;99.90;;;;;;5051959;28;20171;-48
2022/08/21 01:54:32;;;;;;;7.43;4.85;;;17.70;99.90;;;;;;5051940;28;20256;-49
2022/08/21 01:56:59;;;;;;;8.88;4.75;;;17.70;99.90;;;;;;5052037;28;20166;-48
2022/08/21 01:59:25;;;;;;;8.05;4.90;;;17.60;99.90;;;;;;5050231;28;20249;-46
2022/08/21 02:01:53;;;;;;;10.73;5.20;;;17.50;99.90;;;;;;5052032;28;20632;-48
2022/08/21 02:04:19;;;;;;;8.60;4.72;;;17.40;99.90;;;;;;5052420;28;20179;-49
2022/08/21 02:06:45;;;;;;;9.00;4.93;;;17.50;99.90;;;;;;5052125;28;20683;-49
2022/08/21 02:09:11;;;;;;;7.50;5.18;;;17.50;99.90;;;;;;5051854;28;20170;-48
2022/08/21 02:11:40;;;;;;;6.82;4.90;;;17.40;99.90;;;;;;5050405;28;20171;-48
2022/08/21 02:14:11;;;;;;;13.48;5.18;;;17.40;99.90;;;;;;5051670;28;20248;-48
2022/08/21 02:16:38;;;;;;;9.35;5.00;;;17.40;99.90;;;;;;5051286;28;20174;-47
2022/08/21 02:19:05;;;;;;;9.23;5.63;;;17.40;99.90;;;;;;5051699;28;20171;-48
2022/08/21 02:21:31;;;;;;;6.30;4.95;;;17.40;99.90;;;;;;5051657;28;20600;-48
2022/08/21 02:23:57;;;;;;;6.97;5.03;;;17.50;99.90;;;;;;5051763;28;20158;-48
2022/08/21 02:26:22;;;;;;;9.77;4.93;;;17.50;99.90;;;;;;5051869;28;20538;-48
2022/08/21 02:28:48;;;;;;;8.85;5.60;;;17.40;99.90;;;;;;5052060;28;20163;-45
2022/08/21 02:31:14;;;;;;;12.65;5.15;;;17.50;99.90;;;;;;5051506;28;20177;-47
2022/08/21 02:33:40;;;;;;;8.32;5.45;;;17.40;99.90;;;;;;5051504;28;20220;-46
2022/08/21 02:36:06;;;;;;;10.23;5.70;;;17.40;99.90;;;;;;5051481;28;20535;-48
2022/08/21 02:38:37;;;;;;;8.63;5.43;;;17.40;99.90;;;;;;5051436;28;20257;-46
2022/08/21 02:41:04;;;;;;;10.52;5.65;;;17.30;99.90;;;;;;5051744;28;20177;-47
2022/08/21 02:43:29;;;;;;;14.55;5.95;;;17.30;99.90;;;;;;5051420;28;20177;-48
2022/08/21 02:45:57;;;;;;;10.25;5.22;;;17.30;99.90;;;;;;5051425;28;20174;-44
2022/08/21 02:48:25;;;;;;;8.98;5.80;;;17.20;99.90;;;;;;5051369;28;20245;-48
2022/08/21 02:50:57;;;;;;;9.07;6.15;;;17.10;99.90;;;;;;5051741;28;20186;-45
2022/08/21 02:53:23;;;;;;;13.63;6.57;;;17.10;99.90;;;;;;5051575;28;20219;-46
2022/08/21 02:55:50;;;;;;;13.55;5.70;;;17.20;99.90;;;;;;5051888;28;20171;-45
2022/08/21 02:58:20;;;;;;;10.80;6.05;;;17.10;99.90;;;;;;5051405;28;20167;-45
2022/08/21 03:00:46;;;;;;;15.30;7.82;;;17.10;99.90;;;;;;5051341;28;20171;-44
2022/08/21 03:03:13;;;;;;;12.27;7.63;;;17.20;99.90;;;;;;5050735;28;20169;-44
2022/08/21 03:05:38;;;;;;;17.52;8.77;;;17.20;99.90;;;;;;5051457;28;20580;-44
2022/08/21 03:08:09;;;;;;;10.60;6.80;;;17.20;99.90;;;;;;5051457;28;20200;-45
2022/08/21 03:10:36;;;;;;;12.20;6.80;;;17.20;99.90;;;;;;5051434;28;20224;-44
2022/08/21 03:13:03;;;;;;;14.63;8.55;;;17.20;99.90;;;;;;5053597;28;20349;-44
2022/08/21 03:15:28;;;;;;;11.73;7.50;;;17.20;99.90;;;;;;5055216;28;20178;-44
2022/08/21 03:17:54;;;;;;;19.63;8.95;;;17.20;99.90;;;;;;5055086;28;20171;-45
2022/08/21 03:20:23;;;;;;;25.48;10.18;;;17.10;99.90;;;;;;5054885;28;20163;-44
2022/08/21 03:22:49;;;;;;;20.80;9.48;;;17.10;99.90;;;;;;5055525;28;20632;-44
2022/08/21 03:25:15;;;;;;;17.90;9.55;;;17.10;99.90;;;;;;5055337;28;20228;-44
2022/08/21 03:27:41;;;;;;;15.75;8.20;;;17.00;99.90;;;;;;5053274;28;20170;-44
2022/08/21 03:30:08;;;;;;;16.73;7.32;;;17.00;99.90;;;;;;5054468;28;20551;-44
2022/08/21 03:32:35;;;;;;;12.65;6.90;;;17.00;99.90;;;;;;5054931;28;20549;-45
2022/08/21 03:35:01;;;;;;;14.20;6.43;;;17.00;99.90;;;;;;5054494;28;20261;-45
2022/08/21 03:37:28;;;;;;;14.38;6.13;;;17.00;99.90;;;;;;5054682;28;20254;-44
2022/08/21 03:39:53;;;;;;;12.10;5.72;;;17.00;99.90;;;;;;5054443;28;20638;-46
2022/08/21 03:42:19;;;;;;;10.70;6.18;;;17.00;99.90;;;;;;5054966;28;20213;-44
2022/08/21 03:44:45;;;;;;;14.98;6.88;;;16.90;99.90;;;;;;5054766;28;20205;-44
2022/08/21 03:47:10;;;;;;;12.15;6.68;;;16.90;99.90;;;;;;5054251;28;20194;-44
2022/08/21 03:49:37;;;;;;;11.77;6.88;;;16.80;99.90;;;;;;5054113;28;20167;-44
2022/08/21 03:52:03;;;;;;;12.52;7.15;;;16.70;99.90;;;;;;5054305;28;20202;-44
2022/08/21 03:54:29;;;;;;;10.93;6.50;;;16.30;99.90;;;;;;5054193;28;20217;-44
2022/08/21 03:56:55;;;;;;;10.77;5.63;;;16.30;99.90;;;;;;5054215;28;20162;-44
2022/08/21 03:59:20;;;;;;;14.18;5.97;;;16.20;99.90;;;;;;5054242;28;20173;-44
2022/08/21 04:01:59;;;;;;;13.27;6.45;;;15.90;99.90;;;;;;5053215;28;20177;-49
2022/08/21 04:04:26;;;;;;;14.13;6.28;;;15.80;99.90;;;;;;5054213;28;20174;-49
2022/08/21 04:06:52;;;;;;;13.20;7.95;;;15.90;99.90;;;;;;5054135;28;20163;-50
2022/08/21 04:09:18;;;;;;;11.73;6.60;;;15.80;99.90;;;;;;5054415;28;20204;-49
2022/08/21 04:11:45;;;;;;;12.32;6.63;;;15.90;99.90;;;;;;5054011;28;20190;-50
2022/08/21 04:14:11;;;;;;;10.95;6.50;;;16.00;99.90;;;;;;5053870;28;20681;-50
2022/08/21 04:16:37;;;;;;;8.65;6.07;;;16.10;99.90;;;;;;5054102;28;20182;-50
2022/08/21 04:19:03;;;;;;;9.38;5.35;;;16.10;99.90;;;;;;5053838;28;20162;-50
2022/08/21 04:21:30;;;;;;;7.43;5.18;;;16.00;99.90;;;;;;5053783;28;20171;-50
2022/08/21 04:23:55;;;;;;;8.77;6.30;;;16.10;99.90;;;;;;5053253;28;20159;-49
2022/08/21 04:26:21;;;;;;;11.27;5.50;;;16.10;99.90;;;;;;5053661;28;20611;-49
2022/08/21 04:28:47;;;;;;;8.38;5.38;;;16.00;99.90;;;;;;5053984;28;20622;-49
2022/08/21 04:31:13;;;;;;;12.40;6.63;;;16.00;99.90;;;;;;5053636;28;20167;-49
2022/08/21 04:33:38;;;;;;;10.57;5.78;;;16.10;99.90;;;;;;5053431;28;20198;-49
2022/08/21 04:36:04;;;;;;;7.93;5.05;;;16.10;99.90;;;;;;5053470;28;20292;-48
2022/08/21 04:38:31;;;;;;;12.48;6.03;;;16.10;99.90;;;;;;5053542;28;20499;-49
2022/08/21 04:40:57;;;;;;;10.50;6.63;;;16.10;99.90;;;;;;5053431;28;20676;-48
2022/08/21 04:43:23;;;;;;;9.57;5.53;;;16.10;99.90;;;;;;5053367;28;20201;-49
2022/08/21 04:45:50;;;;;;;11.07;5.82;;;16.20;99.90;;;;;;5053823;28;20623;-48
2022/08/21 04:48:18;;;;;;;8.55;5.68;;;16.20;99.90;;;;;;5053594;28;20174;-50
2022/08/21 04:50:47;;;;;;;8.68;5.10;;;16.30;99.90;;;;;;5053791;28;20167;-48
2022/08/21 04:53:42;;;;;;;8.30;5.22;;;16.10;99.90;;;;;;5053013;28;20648;-48
2022/08/21 04:56:11;;;;;;;10.70;5.53;;;16.30;99.90;;;;;;5042979;28;20186;-49
2022/08/21 04:58:38;;;;;;;10.95;5.22;;;16.50;99.90;;;;;;5053074;28;20205;-48
2022/08/21 05:01:06;;;;;;;9.95;5.15;;;16.50;99.90;;;;;;5053044;28;20720;-49
2022/08/21 05:03:34;;;;;;;10.68;6.28;;;16.40;99.90;;;;;;5052993;28;20257;-48
2022/08/21 05:06:00;;;;;;;10.18;5.28;;;16.40;99.90;;;;;;5053137;28;20534;-49
2022/08/21 05:08:27;;;;;;;13.73;5.90;;;16.50;99.90;;;;;;5052883;28;20167;-47
2022/08/21 05:10:54;;;;;;;14.25;5.72;;;16.40;99.90;;;;;;5052835;28;20166;-47
2022/08/21 05:13:20;;;;;;;12.07;6.13;;;16.40;99.90;;;;;;5052584;28;20225;-47
2022/08/21 05:15:46;;;;;;;9.70;5.78;;;16.40;99.90;;;;;;5053071;28;20170;-48
2022/08/21 05:18:11;;;;;;;13.43;5.72;;;16.30;99.90;;;;;;5052694;28;20253;-47
2022/08/21 05:20:37;;;;;;;14.43;6.15;;;16.30;99.90;;;;;;5051283;28;20205;-48
2022/08/21 05:23:08;;;;;;;10.32;6.25;;;16.50;99.90;;;;;;5052537;28;20163;-48
2022/08/21 05:25:34;;;;;;;10.65;5.38;;;16.50;99.90;;;;;;5052562;28;20166;-46
2022/08/21 05:27:59;;;;;;;15.18;6.40;;;16.60;99.90;;;;;;5052567;28;20254;-47
2022/08/21 05:30:25;;;;;;;12.95;6.20;;;16.70;99.90;;;;;;5052478;28;20178;-44
2022/08/21 05:32:56;;;;;;;13.70;6.55;;;16.60;99.90;;;;;;5052381;28;20627;-46
2022/08/21 05:35:22;;;;;;;11.10;5.13;;;16.60;99.90;;;;;;5051620;28;20715;-48
2022/08/21 05:37:48;;;;;;;11.30;5.28;;;16.70;99.90;;;;;;5052593;28;20194;-48
2022/08/21 05:40:14;;;;;;;7.78;4.72;;;16.80;99.90;;;;;;5052667;28;20174;-45
2022/08/21 05:42:39;;;;;;;10.88;5.18;;;16.90;99.90;;;;;;5052612;28;20512;-47
2022/08/21 05:45:05;;;;;;;14.52;4.88;;;16.80;99.90;;;;;;5052245;28;20244;-47
2022/08/21 05:47:31;;;;;;;8.75;4.47;;;16.70;99.90;;;;;;5052442;28;20206;-45
2022/08/21 05:49:56;;;;;;;10.15;4.18;;;16.80;99.90;;;;;;5052207;28;20167;-49
2022/08/21 05:52:22;;;;;;;10.18;4.45;;;17.00;99.90;;;;;;5052171;28;20163;-45
2022/08/21 05:54:49;;;;;;;8.35;4.32;;;17.00;99.90;;;;;;5052384;28;20218;-47
2022/08/21 05:57:14;;;;;;;7.10;4.00;;;17.00;99.90;;;;;;5052365;28;20205;-46
2022/08/21 05:59:40;;;;;;;12.45;3.88;;;17.10;99.90;;;;;;5052071;28;20579;-48
2022/08/21 06:02:07;;;;;;;9.60;4.30;;;17.10;99.90;;;;;;5051944;28;20162;-45
2022/08/21 06:04:36;;;;;;;9.88;4.10;;;17.10;99.90;;;;;;5052174;28;20180;-44
2022/08/21 06:07:01;;;;;;;8.75;4.80;;;17.20;99.90;;;;;;5051947;28;20197;-46
2022/08/21 06:09:27;;;;;;;11.68;3.78;;;17.30;99.90;;;;;;5051876;28;20170;-46
2022/08/21 06:11:52;;;;;;;8.25;4.20;;;17.50;99.90;;;;;;5051752;28;20614;-45
2022/08/21 06:14:18;;;;;;;7.00;3.65;;;17.70;99.90;;;;;;5051702;28;20299;-45
2022/08/21 06:16:44;;;;;;;10.18;5.03;;;17.90;99.90;;;;;;5052140;28;20167;-45
2022/08/21 06:19:09;;;;;;;9.63;4.00;;;18.00;99.90;;;;;;5052014;28;20733;-46
2022/08/21 06:21:35;;;;;;;11.75;4.50;;;18.10;99.90;;;;;;5051726;28;20688;-45
2022/08/21 06:24:00;;;;;;;11.50;4.20;;;18.20;99.90;;;;;;5051654;28;20174;-45
2022/08/21 06:26:27;;;;;;;10.32;4.25;;;18.20;99.90;;;;;;5051511;28;20615;-45
2022/08/21 06:28:53;;;;;;;11.93;3.60;;;18.30;99.90;;;;;;5051750;28;20186;-47
2022/08/21 06:31:24;;;;;;;9.15;3.53;;;18.40;99.90;;;;;;5051575;28;20194;-44
2022/08/21 06:33:50;;;;;;;10.73;3.67;;;18.30;99.90;;;;;;5051607;28;20194;-44
2022/08/21 06:36:16;;;;;;;8.15;3.22;;;18.40;99.90;;;;;;5052447;28;20224;-45
2022/08/21 06:38:41;;;;;;;7.80;3.15;;;18.50;99.90;;;;;;5051510;28;20163;-46
2022/08/21 06:41:07;;;;;;;7.88;3.28;;;18.60;99.90;;;;;;5051512;28;20535;-45
2022/08/21 06:43:33;;;;;;;5.03;2.97;;;18.60;99.90;;;;;;5051554;28;20177;-46
2022/08/21 06:45:59;;;;;;;7.13;3.45;;;18.50;99.90;;;;;;5052452;28;20229;-45
2022/08/21 06:48:25;;;;;;;6.43;3.15;;;18.70;99.90;;;;;;5055543;28;20166;-45
2022/08/21 06:50:50;;;;;;;10.98;3.42;;;18.80;99.90;;;;;;5055543;28;20167;-47
2022/08/21 06:53:19;;;;;;;4.45;2.72;;;18.90;99.90;;;;;;5055677;28;20645;-47
2022/08/21 06:55:45;;;;;;;6.53;3.08;;;19.10;99.90;;;;;;5055810;28;20194;-48
2022/08/21 06:58:11;;;;;;;7.93;3.30;;;19.10;99.90;;;;;;5055330;28;20198;-45
2022/08/21 07:00:41;;;;;;;10.10;3.10;;;19.10;99.90;;;;;;5055295;28;20169;-45
2022/08/21 07:03:07;;;;;;;5.97;2.88;;;19.30;99.90;;;;;;5055263;28;20163;-45
2022/08/21 07:05:33;;;;;;;8.25;3.13;;;19.20;99.90;;;;;;5053877;28;20284;-46
2022/08/21 07:07:58;;;;;;;7.50;3.65;;;19.30;99.90;;;;;;5055204;28;20228;-47
2022/08/21 07:10:25;;;;;;;7.50;2.60;;;19.30;99.90;;;;;;5055175;28;20253;-45
2022/08/21 07:12:52;;;;;;;5.63;3.08;;;19.30;99.90;;;;;;5054975;28;20232;-46
2022/08/21 07:15:18;;;;;;;6.57;2.63;;;19.40;99.90;;;;;;5055299;28;20557;-46
2022/08/21 07:17:44;;;;;;;4.50;2.60;;;19.60;99.90;;;;;;5055410;28;20163;-45
2022/08/21 07:20:09;;;;;;;5.55;2.83;;;19.50;99.90;;;;;;5055022;28;20170;-45
2022/08/21 07:22:37;;;;;;;8.35;3.47;;;19.50;99.90;;;;;;5055175;28;20236;-45
2022/08/21 07:25:04;;;;;;;7.65;3.05;;;19.40;99.90;;;;;;5054889;28;20645;-45
2022/08/21 07:27:31;;;;;;;8.30;3.05;;;19.50;99.90;;;;;;5054775;28;20583;-44
2022/08/21 07:29:57;;;;;;;6.80;2.95;;;19.60;99.90;;;;;;5054808;28;20162;-46
2022/08/21 07:32:23;;;;;;;8.20;3.65;;;19.70;99.90;;;;;;5054792;28;20162;-46
2022/08/21 07:34:48;;;;;;;9.05;3.13;;;19.80;99.90;;;;;;5054740;28;20589;-48
2022/08/21 07:37:14;;;;;;;9.60;3.53;;;20.00;99.90;;;;;;5055034;28;20173;-47
2022/08/21 07:39:39;;;;;;;6.47;2.78;;;19.90;99.90;;;;;;5054721;28;20175;-48
2022/08/21 07:42:05;;;;;;;7.80;3.05;;;20.10;99.90;;;;;;5054627;28;20163;-47
2022/08/21 07:44:31;;;;;;;6.00;2.78;;;20.20;99.90;;;;;;5054615;28;20175;-49
2022/08/21 07:46:56;;;;;;;5.70;2.63;;;20.30;99.90;;;;;;5054757;28;20167;-49
2022/08/21 07:49:22;;;;;;;4.40;2.10;;;20.30;99.90;;;;;;5054376;28;20166;-48
2022/08/21 07:51:48;;;;;;;5.43;2.50;;;20.30;99.90;;;;;;5054549;28;20171;-45
2022/08/21 07:54:13;;;;;;;5.95;2.38;;;20.30;99.90;;;;;;5054605;28;20198;-46
2022/08/21 07:56:39;;;;;;;2.10;1.50;;;20.40;99.90;;;;;;5054280;28;20571;-45
2022/08/21 07:59:04;;;;;;;3.40;1.58;;;20.50;99.90;;;;;;5053405;28;20175;-46
2022/08/21 08:01:30;;;;;;;2.95;1.67;;;20.60;99.90;;;;;;5054487;28;20163;-46
2022/08/21 08:03:56;;;;;;;3.13;1.52;;;20.70;99.90;;;;;;5054396;28;20645;-47
2022/08/21 08:06:22;;;;;;;2.58;1.38;;;20.80;99.90;;;;;;5054132;28;20175;-47
2022/08/21 08:08:48;;;;;;;4.60;1.48;;;20.90;99.90;;;;;;5054248;28;20170;-47
2022/08/21 08:11:15;;;;;;;3.13;1.50;;;21.00;99.90;;;;;;5054402;28;20590;-48
2022/08/21 08:13:49;;;;;;;2.35;1.55;;;21.00;99.90;;;;;;5053617;28;20246;-49
2022/08/21 08:16:15;;;;;;;3.25;1.70;;;21.00;99.90;;;;;;5054191;28;20178;-48
2022/08/21 08:18:41;;;;;;;5.90;1.60;;;21.10;99.90;;;;;;5054118;28;20163;-47
2022/08/21 08:21:08;;;;;;;6.25;2.05;;;21.10;99.90;;;;;;5054013;28;20179;-47
2022/08/21 08:23:34;;;;;;;4.40;1.45;;;21.30;99.90;;;;;;5053794;28;20202;-46
2022/08/21 08:26:02;;;;;;;4.35;1.65;;;21.50;99.90;;;;;;5053723;28;20186;-47
2022/08/21 08:28:28;;;;;;;7.22;1.67;;;21.80;99.90;;;;;;5053883;28;20174;-46
2022/08/21 08:30:55;;;;;;;4.50;1.40;;;21.90;99.90;;;;;;5053767;28;20216;-48
2022/08/21 08:33:21;;;;;;;4.57;1.33;;;22.00;99.90;;;;;;5053780;28;20210;-48
2022/08/21 08:35:49;;;;;;;3.58;1.30;;;22.00;99.90;;;;;;5053961;28;20213;-48
2022/08/21 08:38:18;;;;;;;4.38;1.33;;;22.00;99.90;;;;;;5053870;28;20175;-48
2022/08/21 08:41:01;;;;;;;3.33;1.45;;;22.10;99.90;;;;;;5054008;28;20174;-48
2022/08/21 08:43:29;;;;;;;8.57;1.40;;;22.20;99.90;;;;;;5053382;28;20221;-47
2022/08/21 08:45:58;;;;;;;3.78;1.55;;;22.40;99.90;;;;;;5053616;28;20239;-48
2022/08/21 08:48:38;;;;;;;2.60;1.15;;;22.30;99.90;;;;;;5053665;28;20170;-48
2022/08/21 08:51:13;;;;;;;3.15;1.52;;;22.30;99.90;;;;;;5053520;28;20239;-48
2022/08/21 08:53:58;;;;;;;3.58;1.88;;;22.50;99.90;;;;;;5053117;28;20205;-47
2022/08/21 08:56:30;;;;;;;3.05;1.40;;;22.50;99.90;;;;;;5053200;28;20241;-48
2022/08/21 08:59:04;;;;;;;4.35;1.80;;;22.70;99.90;;;;;;5053142;28;20162;-49
2022/08/21 09:01:29;;;;;;;3.65;1.65;;;23.00;99.90;;;;;;5053167;28;20253;-48
2022/08/21 09:03:57;;;;;;;4.55;1.95;;;22.50;99.90;;;;;;5052950;28;20242;-44
2022/08/21 09:06:45;;;;;;;2.55;1.30;;;22.50;99.90;;;;;;5052997;28;20205;-45
2022/08/21 09:09:26;;;;;;;2.22;1.42;;;22.70;99.90;;;;;;5052840;28;20178;-46
2022/08/21 09:12:38;;;;;;;2.42;1.38;;;23.00;99.90;;;;;;5052756;28;20220;-45
2022/08/21 09:15:29;;;;;;;5.70;1.90;;;23.20;99.90;;;;;;5041943;28;20254;-45
2022/08/21 09:18:19;;;;;;;3.00;1.73;;;23.10;99.90;;;;;;5052840;28;20216;-46
2022/08/21 09:20:50;;;;;;;2.83;1.45;;;23.20;99.90;;;;;;5052940;28;20170;-46
2022/08/21 09:23:28;;;;;;;3.15;1.52;;;23.40;99.90;;;;;;5052972;28;20158;-45
2022/08/21 09:26:06;;;;;;;5.82;1.90;;;23.20;99.90;;;;;;5051532;28;20177;-45
2022/08/21 09:28:34;;;;;;;5.43;2.17;;;23.30;99.90;;;;;;5052601;28;20249;-45
2022/08/21 09:31:02;;;;;;;3.42;1.38;;;23.20;99.90;;;;;;5052392;28;20177;-45
2022/08/21 09:33:29;;;;;;;2.30;1.35;;;23.50;99.90;;;;;;5052114;28;20249;-45
2022/08/21 09:35:59;;;;;;;5.32;1.80;;;23.90;99.90;;;;;;5052354;28;20660;-45
2022/08/21 09:38:36;;;;;;;2.55;1.52;;;23.80;99.90;;;;;;5052257;28;20209;-45
2022/08/21 09:41:11;;;;;;;5.57;1.75;;;23.80;99.90;;;;;;5052180;28;20177;-45
2022/08/21 09:43:38;;;;;;;5.90;1.65;;;23.80;99.90;;;;;;5052155;28;21161;-46
2022/08/21 09:46:12;;;;;;;4.78;1.83;;;23.90;99.90;;;;;;5052267;28;20194;-46
2022/08/21 09:48:47;;;;;;;3.65;1.40;;;23.50;99.90;;;;;;5052530;28;20170;-45
2022/08/21 09:51:25;;;;;;;5.28;1.65;;;23.30;99.90;;;;;;5051638;28;20166;-47
2022/08/21 09:54:03;;;;;;;3.00;1.60;;;23.30;99.90;;;;;;5052057;28;20198;-47
2022/08/21 09:59:31;;;;;;;6.60;1.90;;;23.50;99.90;;;;;;5052233;28;20204;-45
2022/08/21 10:02:01;;;;;;;3.58;1.40;;;23.80;99.90;;;;;;5051593;28;20597;-46
2022/08/21 10:04:36;;;;;;;6.63;1.80;;;23.80;99.90;;;;;;5051858;28;20172;-45
2022/08/21 10:07:12;;;;;;;7.90;1.92;;;23.80;99.90;;;;;;5051532;28;20197;-45
2022/08/21 10:09:38;;;;;;;7.68;1.70;;;24.00;99.90;;;;;;5051825;28;20523;-45
2022/08/21 10:12:16;;;;;;;6.55;1.80;;;24.20;99.90;;;;;;5051588;28;20221;-45
2022/08/21 10:14:42;;;;;;;4.13;1.88;;;24.20;99.90;;;;;;5052202;28;20627;-46
2022/08/21 10:17:14;;;;;;;4.18;1.73;;;24.40;99.90;;;;;;5051365;28;20192;-45
2022/08/21 10:20:02;;;;;;;3.75;1.65;;;24.50;99.90;;;;;;5051680;28;20621;-45
2022/08/21 10:22:38;;;;;;;3.38;1.70;;;24.60;99.90;;;;;;5051151;28;20236;-46
2022/08/21 10:25:06;;;;;;;5.78;1.83;;;24.40;99.90;;;;;;5051741;28;20189;-49
2022/08/21 10:27:59;;;;;;;6.88;1.70;;;24.60;99.90;;;;;;5051278;28;20518;-45
2022/08/21 10:30:46;;;;;;;4.78;1.90;;;24.70;99.90;;;;;;5051909;28;20177;-48
2022/08/21 10:33:40;;;;;;;3.00;1.63;;;25.00;99.90;;;;;;5051462;28;20555;-48
2022/08/21 10:36:13;;;;;;;3.45;1.65;;;24.80;99.90;;;;;;5051472;28;20543;-45
2022/08/21 10:39:13;;;;;;;4.90;1.92;;;24.60;99.90;;;;;;5051537;28;20252;-45
2022/08/21 10:42:09;;;;;;;9.80;2.10;;;24.90;99.90;;;;;;5051506;28;20158;-49
2022/08/21 10:44:59;;;;;;;4.80;2.05;;;25.20;99.90;;;;;;5051510;28;20582;-48
2022/08/21 10:47:29;;;;;;;5.90;1.90;;;25.30;99.90;;;;;;5051421;28;20622;-47
2022/08/21 10:50:29;;;;;;;5.88;1.80;;;25.30;99.90;;;;;;5051778;28;20579;-48
2022/08/21 10:52:58;;;;;;;4.75;1.58;;;25.30;99.90;;;;;;5051514;28;20537;-46
2022/08/21 10:55:39;;;;;;;3.97;1.45;;;25.50;99.90;;;;;;5051147;28;20659;-47
2022/08/21 10:58:11;;;;;;;4.55;1.90;;;25.20;99.90;;;;;;5051396;28;20618;-48
2022/08/21 11:00:46;;;;;;;5.70;2.10;;;25.30;99.90;;;;;;5051368;28;20163;-48
2022/08/21 11:03:23;;;;;;;4.28;1.67;;;25.70;99.90;;;;;;5051828;28;20177;-48
2022/08/21 11:06:05;;;;;;;4.40;2.03;;;25.70;99.90;;;;;;5051353;28;20173;-47
2022/08/21 11:08:46;;;;;;;7.15;1.88;;;25.70;99.90;;;;;;5051286;28;20244;-47
2022/08/21 11:11:23;;;;;;;6.10;1.50;;;26.10;99.90;;;;;;5051894;28;20181;-48
2022/08/21 11:13:53;;;;;;;6.75;2.00;;;26.10;99.90;;;;;;5051106;28;20681;-54
2022/08/21 11:16:39;;;;;;;3.17;1.70;;;26.00;99.90;;;;;;5051333;28;20172;-49
2022/08/21 11:19:17;;;;;;;5.43;1.58;;;25.70;99.90;;;;;;5051230;28;20190;-49
2022/08/21 11:22:00;;;;;;;4.20;1.75;;;25.50;99.90;;;;;;5051464;28;20158;-50
2022/08/21 11:24:46;;;;;;;6.65;2.45;;;25.60;99.90;;;;;;5051165;28;20169;-48
2022/08/21 11:27:26;;;;;;;5.28;2.17;;;25.60;99.90;;;;;;5051569;28;20219;-49
2022/08/21 11:30:00;;;;;;;5.60;1.80;;;25.60;99.90;;;;;;5051051;28;20174;-49
2022/08/21 11:32:59;;;;;;;5.22;2.08;;;25.00;99.90;;;;;;5051136;28;20166;-49
2022/08/21 11:35:42;;;;;;;6.13;1.95;;;25.20;99.90;;;;;;5054685;28;20198;-49
2022/08/21 11:38:14;;;;;;;6.53;2.05;;;25.60;99.90;;;;;;5054665;28;20163;-50
2022/08/21 11:41:03;;;;;;;4.18;2.10;;;26.00;99.90;;;;;;5054645;28;20272;-50
2022/08/21 11:43:32;;;;;;;4.03;1.95;;;26.10;99.90;;;;;;5054691;28;20173;-49
2022/08/21 11:46:16;;;;;;;3.60;1.67;;;26.00;99.90;;;;;;5054609;28;20622;-49
2022/08/21 11:49:06;;;;;;;4.35;1.80;;;26.40;99.90;;;;;;5054820;28;20162;-48
2022/08/21 11:51:40;;;;;;;4.85;1.50;;;26.60;99.90;;;;;;5054321;28;20178;-48
2022/08/21 11:54:16;;;;;;;4.43;1.75;;;26.90;99.90;;;;;;5054221;28;20259;-48
2022/08/21 11:56:48;;;;;;;5.15;2.10;;;26.60;99.90;;;;;;5054704;28;20173;-49
2022/08/21 11:59:46;;;;;;;4.25;1.52;;;26.40;99.90;;;;;;5054797;28;20248;-45
2022/08/21 12:02:22;;;;;;;5.30;1.63;;;26.30;99.90;;;;;;5049936;28;20645;-49
2022/08/21 12:04:56;;;;;;;2.53;1.60;;;26.40;99.90;;;;;;5052586;28;20169;-45
2022/08/21 12:07:39;;;;;;;5.22;1.88;;;26.50;99.90;;;;;;5053960;28;20176;-46
2022/08/21 12:10:11;;;;;;;6.32;2.05;;;26.50;99.90;;;;;;5053759;28;20196;-45
2022/08/21 12:12:39;;;;;;;3.42;1.73;;;26.50;99.90;;;;;;5053879;28;20257;-48
2022/08/21 12:15:21;;;;;;;3.17;1.77;;;26.60;99.90;;;;;;5053854;28;20295;-45
2022/08/21 12:18:06;;;;;;;4.25;2.05;;;26.50;99.90;;;;;;5054010;28;20507;-45
2022/08/21 12:20:34;;;;;;;8.57;2.10;;;26.70;99.90;;;;;;5053729;28;20174;-46
2022/08/21 12:23:09;;;;;;;3.83;1.88;;;26.70;99.90;;;;;;5053399;28;20248;-46
2022/08/21 12:25:44;;;;;;;3.15;1.98;;;26.60;99.90;;;;;;5053594;28;20655;-45
2022/08/21 12:28:13;;;;;;;3.10;1.67;;;26.50;99.90;;;;;;5053782;28;20189;-45
2022/08/21 12:30:45;;;;;;;5.05;2.00;;;26.30;99.90;;;;;;5053675;28;20204;-47
2022/08/21 12:33:28;;;;;;;5.20;1.98;;;26.50;99.90;;;;;;5053411;28;20177;-48
2022/08/21 12:36:10;;;;;;;5.57;2.00;;;26.50;99.90;;;;;;5053742;28;20182;-47
2022/08/21 12:38:54;;;;;;;5.13;1.83;;;26.30;99.90;;;;;;5053224;28;20215;-47
2022/08/21 12:41:30;;;;;;;4.53;1.85;;;26.30;99.90;;;;;;5052172;28;20216;-48
2022/08/21 12:44:08;;;;;;;5.30;1.80;;;26.50;99.90;;;;;;5052815;28;20165;-49
2022/08/21 12:46:51;;;;;;;5.07;2.00;;;26.50;99.90;;;;;;5053163;28;20158;-47
2022/08/21 12:49:28;;;;;;;8.88;2.25;;;26.60;99.90;;;;;;5053090;28;20268;-48
2022/08/21 12:52:01;;;;;;;6.03;2.88;;;26.50;99.90;;;;;;5053231;28;20170;-47
2022/08/21 12:54:36;;;;;;;4.97;2.08;;;26.70;99.90;;;;;;5051638;28;20209;-46
2022/08/21 12:57:05;;;;;;;4.78;2.33;;;26.90;99.90;;;;;;5052605;28;20656;-49
2022/08/21 12:59:32;;;;;;;4.05;1.88;;;26.70;99.90;;;;;;5053143;28;20178;-49
2022/08/21 13:02:01;;;;;;;2.75;2.00;;;26.90;99.90;;;;;;5052763;28;20166;-47